sensor_id;sensor_type;location;lat;lon;timestamp;P1;durP1;ratioP1;P2;durP2;ratioP2
50781;SDS011;36749;37.428;-121.972;2022-11-20T00:01:21;10.00;;;4.45;;
50781;SDS011;36749;37.428;-121.972;2022-11-20T00:03:50;7.60;;;4.18;;
50781;SDS011;36749;37.428;-121.972;2022-11-20T00:06:17;7.90;;;4.45;;
50781;SDS011;36749;37.428;-121.972;2022-11-20T00:08:44;8.80;;;4.22;;
50781;SDS011;36749;37.428;-121.972;2022-11-20T00:11:15;8.95;;;3.97;;
50781;SDS011;36749;37.428;-121.972;2022-11-20T00:13:43;9.38;;;4.35;;
50781;SDS011;36749;37.428;-121.972;2022-11-20T00:16:10;9.55;;;4.22;;
50781;SDS011;36749;37.428;-121.972;2022-11-20T00:18:38;14.73;;;4.50;;
50781;SDS011;36749;37.428;-121.972;2022-11-20T00:21:15;11.50;;;4.57;;
50781;SDS011;36749;37.428;-121.972;2022-11-20T00:23:45;10.23;;;5.03;;
50781;SDS011;36749;37.428;-121.972;2022-11-20T00:26:12;9.32;;;4.43;;
50781;SDS011;36749;37.428;-121.972;2022-11-20T00:28:40;7.80;;;4.18;;
50781;SDS011;36749;37.428;-121.972;2022-11-20T00:31:13;10.70;;;4.63;;
50781;SDS011;36749;37.428;-121.972;2022-11-20T00:33:41;14.80;;;5.82;;
50781;SDS011;36749;37.428;-121.972;2022-11-20T00:36:08;14.10;;;5.30;;
50781;SDS011;36749;37.428;-121.972;2022-11-20T00:38:45;12.27;;;4.65;;
50781;SDS011;36749;37.428;-121.972;2022-11-20T00:41:12;13.88;;;5.10;;
50781;SDS011;36749;37.428;-121.972;2022-11-20T00:43:39;16.27;;;6.35;;
50781;SDS011;36749;37.428;-121.972;2022-11-20T00:46:08;17.35;;;5.78;;
50781;SDS011;36749;37.428;-121.972;2022-11-20T00:48:35;13.95;;;5.25;;
50781;SDS011;36749;37.428;-121.972;2022-11-20T00:51:01;14.40;;;6.20;;
50781;SDS011;36749;37.428;-121.972;2022-11-20T00:53:28;15.85;;;6.15;;
50781;SDS011;36749;37.428;-121.972;2022-11-20T00:58:34;17.75;;;6.88;;
50781;SDS011;36749;37.428;-121.972;2022-11-20T01:03:32;18.15;;;5.40;;
50781;SDS011;36749;37.428;-121.972;2022-11-20T01:06:02;14.07;;;5.63;;
50781;SDS011;36749;37.428;-121.972;2022-11-20T01:08:31;17.60;;;7.13;;
50781;SDS011;36749;37.428;-121.972;2022-11-20T01:11:01;14.48;;;5.88;;
50781;SDS011;36749;37.428;-121.972;2022-11-20T01:13:29;14.45;;;6.32;;
50781;SDS011;36749;37.428;-121.972;2022-11-20T01:16:09;17.95;;;6.95;;
50781;SDS011;36749;37.428;-121.972;2022-11-20T01:18:38;28.05;;;6.40;;
50781;SDS011;36749;37.428;-121.972;2022-11-20T01:21:07;17.90;;;6.40;;
50781;SDS011;36749;37.428;-121.972;2022-11-20T01:23:37;18.83;;;6.38;;
50781;SDS011;36749;37.428;-121.972;2022-11-20T01:26:06;16.95;;;6.55;;
50781;SDS011;36749;37.428;-121.972;2022-11-20T01:28:33;17.20;;;5.97;;
50781;SDS011;36749;37.428;-121.972;2022-11-20T01:31:00;18.13;;;6.55;;
50781;SDS011;36749;37.428;-121.972;2022-11-20T01:33:27;17.83;;;6.78;;
50781;SDS011;36749;37.428;-121.972;2022-11-20T01:35:53;19.13;;;6.95;;
50781;SDS011;36749;37.428;-121.972;2022-11-20T01:38:28;19.20;;;7.68;;
50781;SDS011;36749;37.428;-121.972;2022-11-20T01:40:55;15.30;;;6.45;;
50781;SDS011;36749;37.428;-121.972;2022-11-20T01:43:21;26.98;;;6.95;;
50781;SDS011;36749;37.428;-121.972;2022-11-20T01:48:36;16.52;;;6.95;;
50781;SDS011;36749;37.428;-121.972;2022-11-20T01:51:31;21.13;;;8.07;;
50781;SDS011;36749;37.428;-121.972;2022-11-20T01:54:07;19.95;;;7.35;;
50781;SDS011;36749;37.428;-121.972;2022-11-20T01:56:37;23.95;;;7.40;;
50781;SDS011;36749;37.428;-121.972;2022-11-20T01:59:05;19.23;;;7.00;;
50781;SDS011;36749;37.428;-121.972;2022-11-20T02:01:33;16.35;;;6.80;;
50781;SDS011;36749;37.428;-121.972;2022-11-20T02:03:59;17.52;;;7.13;;
50781;SDS011;36749;37.428;-121.972;2022-11-20T02:06:27;17.92;;;6.68;;
50781;SDS011;36749;37.428;-121.972;2022-11-20T02:08:56;18.90;;;7.20;;
50781;SDS011;36749;37.428;-121.972;2022-11-20T02:11:22;16.88;;;6.43;;
50781;SDS011;36749;37.428;-121.972;2022-11-20T02:13:48;14.07;;;6.20;;
50781;SDS011;36749;37.428;-121.972;2022-11-20T02:21:24;15.43;;;6.43;;
50781;SDS011;36749;37.428;-121.972;2022-11-20T02:24:13;15.82;;;6.10;;
50781;SDS011;36749;37.428;-121.972;2022-11-20T02:29:25;15.23;;;6.70;;
50781;SDS011;36749;37.428;-121.972;2022-11-20T02:31:53;17.90;;;7.57;;
50781;SDS011;36749;37.428;-121.972;2022-11-20T02:34:21;19.45;;;7.40;;
50781;SDS011;36749;37.428;-121.972;2022-11-20T02:36:47;16.77;;;7.32;;
50781;SDS011;36749;37.428;-121.972;2022-11-20T02:39:14;16.85;;;7.25;;
50781;SDS011;36749;37.428;-121.972;2022-11-20T02:41:42;22.88;;;8.88;;
50781;SDS011;36749;37.428;-121.972;2022-11-20T02:44:08;20.02;;;7.50;;
50781;SDS011;36749;37.428;-121.972;2022-11-20T02:46:34;18.05;;;7.90;;
50781;SDS011;36749;37.428;-121.972;2022-11-20T02:49:03;19.15;;;8.05;;
50781;SDS011;36749;37.428;-121.972;2022-11-20T02:51:30;19.02;;;8.25;;
50781;SDS011;36749;37.428;-121.972;2022-11-20T02:53:57;21.73;;;8.45;;
50781;SDS011;36749;37.428;-121.972;2022-11-20T02:56:23;23.08;;;8.80;;
50781;SDS011;36749;37.428;-121.972;2022-11-20T02:58:50;25.45;;;9.15;;
50781;SDS011;36749;37.428;-121.972;2022-11-20T03:01:17;22.65;;;8.80;;
50781;SDS011;36749;37.428;-121.972;2022-11-20T03:03:43;21.73;;;9.10;;
50781;SDS011;36749;37.428;-121.972;2022-11-20T03:06:09;20.45;;;8.63;;
50781;SDS011;36749;37.428;-121.972;2022-11-20T03:08:35;22.60;;;7.93;;
50781;SDS011;36749;37.428;-121.972;2022-11-20T03:11:05;19.85;;;8.40;;
50781;SDS011;36749;37.428;-121.972;2022-11-20T03:13:32;19.65;;;8.88;;
50781;SDS011;36749;37.428;-121.972;2022-11-20T03:16:06;21.15;;;8.30;;
50781;SDS011;36749;37.428;-121.972;2022-11-20T03:18:37;18.90;;;8.77;;
50781;SDS011;36749;37.428;-121.972;2022-11-20T03:21:04;21.63;;;8.73;;
50781;SDS011;36749;37.428;-121.972;2022-11-20T03:23:31;20.80;;;8.15;;
50781;SDS011;36749;37.428;-121.972;2022-11-20T03:26:11;17.27;;;7.53;;
50781;SDS011;36749;37.428;-121.972;2022-11-20T03:28:40;19.52;;;7.88;;
50781;SDS011;36749;37.428;-121.972;2022-11-20T03:31:08;17.65;;;7.18;;
50781;SDS011;36749;37.428;-121.972;2022-11-20T03:33:35;21.38;;;7.38;;
50781;SDS011;36749;37.428;-121.972;2022-11-20T03:36:02;19.80;;;7.13;;
50781;SDS011;36749;37.428;-121.972;2022-11-20T03:38:30;19.25;;;8.32;;
50781;SDS011;36749;37.428;-121.972;2022-11-20T03:40:58;20.65;;;8.15;;
50781;SDS011;36749;37.428;-121.972;2022-11-20T03:43:26;22.58;;;8.65;;
50781;SDS011;36749;37.428;-121.972;2022-11-20T03:45:52;18.52;;;7.65;;
50781;SDS011;36749;37.428;-121.972;2022-11-20T03:48:18;18.85;;;7.75;;
50781;SDS011;36749;37.428;-121.972;2022-11-20T03:50:44;19.85;;;8.05;;
50781;SDS011;36749;37.428;-121.972;2022-11-20T03:53:13;19.27;;;7.75;;
50781;SDS011;36749;37.428;-121.972;2022-11-20T03:55:40;16.27;;;7.20;;
50781;SDS011;36749;37.428;-121.972;2022-11-20T03:58:07;15.80;;;7.88;;
50781;SDS011;36749;37.428;-121.972;2022-11-20T04:00:34;22.27;;;7.88;;
50781;SDS011;36749;37.428;-121.972;2022-11-20T04:03:02;18.40;;;8.15;;
50781;SDS011;36749;37.428;-121.972;2022-11-20T04:05:28;17.38;;;7.65;;
50781;SDS011;36749;37.428;-121.972;2022-11-20T04:07:54;15.93;;;7.40;;
50781;SDS011;36749;37.428;-121.972;2022-11-20T04:10:20;16.65;;;7.32;;
50781;SDS011;36749;37.428;-121.972;2022-11-20T04:12:47;18.38;;;8.30;;
50781;SDS011;36749;37.428;-121.972;2022-11-20T04:15:13;21.70;;;8.23;;
50781;SDS011;36749;37.428;-121.972;2022-11-20T04:17:39;22.85;;;9.95;;
50781;SDS011;36749;37.428;-121.972;2022-11-20T04:20:05;19.85;;;9.07;;
50781;SDS011;36749;37.428;-121.972;2022-11-20T04:22:32;27.50;;;14.35;;
50781;SDS011;36749;37.428;-121.972;2022-11-20T04:24:58;26.75;;;10.82;;
50781;SDS011;36749;37.428;-121.972;2022-11-20T04:27:24;19.42;;;9.55;;
50781;SDS011;36749;37.428;-121.972;2022-11-20T04:29:50;20.60;;;9.38;;
50781;SDS011;36749;37.428;-121.972;2022-11-20T04:32:16;21.85;;;9.50;;
50781;SDS011;36749;37.428;-121.972;2022-11-20T04:34:43;19.85;;;8.82;;
50781;SDS011;36749;37.428;-121.972;2022-11-20T04:37:09;19.55;;;9.05;;
50781;SDS011;36749;37.428;-121.972;2022-11-20T04:39:35;17.75;;;8.52;;
50781;SDS011;36749;37.428;-121.972;2022-11-20T04:42:01;19.25;;;8.40;;
50781;SDS011;36749;37.428;-121.972;2022-11-20T04:44:45;21.67;;;8.07;;
50781;SDS011;36749;37.428;-121.972;2022-11-20T04:47:11;18.02;;;8.00;;
50781;SDS011;36749;37.428;-121.972;2022-11-20T04:49:38;18.13;;;8.07;;
50781;SDS011;36749;37.428;-121.972;2022-11-20T04:52:04;24.25;;;8.60;;
50781;SDS011;36749;37.428;-121.972;2022-11-20T04:54:30;18.17;;;7.47;;
50781;SDS011;36749;37.428;-121.972;2022-11-20T04:56:56;18.95;;;8.63;;
50781;SDS011;36749;37.428;-121.972;2022-11-20T04:59:22;18.00;;;7.97;;
50781;SDS011;36749;37.428;-121.972;2022-11-20T05:01:48;17.40;;;8.05;;
50781;SDS011;36749;37.428;-121.972;2022-11-20T05:04:14;19.38;;;8.45;;
50781;SDS011;36749;37.428;-121.972;2022-11-20T05:06:40;19.30;;;8.35;;
50781;SDS011;36749;37.428;-121.972;2022-11-20T05:09:06;20.85;;;9.50;;
50781;SDS011;36749;37.428;-121.972;2022-11-20T05:11:33;17.20;;;8.10;;
50781;SDS011;36749;37.428;-121.972;2022-11-20T05:13:59;18.17;;;8.27;;
50781;SDS011;36749;37.428;-121.972;2022-11-20T05:16:25;19.45;;;9.32;;
50781;SDS011;36749;37.428;-121.972;2022-11-20T05:18:52;17.67;;;9.00;;
50781;SDS011;36749;37.428;-121.972;2022-11-20T05:21:19;17.02;;;7.40;;
50781;SDS011;36749;37.428;-121.972;2022-11-20T05:23:46;16.20;;;8.45;;
50781;SDS011;36749;37.428;-121.972;2022-11-20T05:26:21;16.48;;;7.40;;
50781;SDS011;36749;37.428;-121.972;2022-11-20T05:28:48;18.30;;;8.90;;
50781;SDS011;36749;37.428;-121.972;2022-11-20T05:31:16;18.45;;;8.60;;
50781;SDS011;36749;37.428;-121.972;2022-11-20T05:33:44;14.88;;;7.28;;
50781;SDS011;36749;37.428;-121.972;2022-11-20T05:36:11;15.57;;;7.60;;
50781;SDS011;36749;37.428;-121.972;2022-11-20T05:38:38;18.92;;;8.27;;
50781;SDS011;36749;37.428;-121.972;2022-11-20T05:41:05;16.85;;;9.15;;
50781;SDS011;36749;37.428;-121.972;2022-11-20T05:43:35;19.63;;;9.05;;
50781;SDS011;36749;37.428;-121.972;2022-11-20T05:46:03;18.63;;;8.93;;
50781;SDS011;36749;37.428;-121.972;2022-11-20T05:48:30;21.05;;;8.98;;
50781;SDS011;36749;37.428;-121.972;2022-11-20T05:50:58;17.27;;;8.52;;
50781;SDS011;36749;37.428;-121.972;2022-11-20T05:53:25;14.38;;;7.45;;
50781;SDS011;36749;37.428;-121.972;2022-11-20T05:55:57;19.77;;;8.88;;
50781;SDS011;36749;37.428;-121.972;2022-11-20T05:58:28;17.95;;;10.00;;
50781;SDS011;36749;37.428;-121.972;2022-11-20T06:00:55;18.00;;;9.63;;
50781;SDS011;36749;37.428;-121.972;2022-11-20T06:03:42;17.30;;;8.15;;
50781;SDS011;36749;37.428;-121.972;2022-11-20T06:06:11;15.68;;;7.85;;
50781;SDS011;36749;37.428;-121.972;2022-11-20T06:08:37;19.70;;;8.50;;
50781;SDS011;36749;37.428;-121.972;2022-11-20T06:11:05;13.95;;;7.57;;
50781;SDS011;36749;37.428;-121.972;2022-11-20T06:13:32;17.75;;;8.48;;
50781;SDS011;36749;37.428;-121.972;2022-11-20T06:15:58;16.95;;;8.45;;
50781;SDS011;36749;37.428;-121.972;2022-11-20T06:18:25;18.38;;;9.38;;
50781;SDS011;36749;37.428;-121.972;2022-11-20T06:21:04;17.88;;;8.45;;
50781;SDS011;36749;37.428;-121.972;2022-11-20T06:23:31;18.10;;;9.68;;
50781;SDS011;36749;37.428;-121.972;2022-11-20T06:25:58;17.77;;;9.57;;
50781;SDS011;36749;37.428;-121.972;2022-11-20T06:28:27;31.98;;;15.02;;
50781;SDS011;36749;37.428;-121.972;2022-11-20T06:30:53;24.30;;;12.88;;
50781;SDS011;36749;37.428;-121.972;2022-11-20T06:33:19;20.70;;;11.52;;
50781;SDS011;36749;37.428;-121.972;2022-11-20T06:35:45;21.30;;;10.40;;
50781;SDS011;36749;37.428;-121.972;2022-11-20T06:38:12;16.75;;;9.35;;
50781;SDS011;36749;37.428;-121.972;2022-11-20T06:40:41;19.58;;;9.73;;
50781;SDS011;36749;37.428;-121.972;2022-11-20T06:43:10;20.10;;;10.35;;
50781;SDS011;36749;37.428;-121.972;2022-11-20T06:45:37;25.52;;;12.32;;
50781;SDS011;36749;37.428;-121.972;2022-11-20T06:48:03;26.27;;;13.18;;
50781;SDS011;36749;37.428;-121.972;2022-11-20T06:50:29;30.33;;;14.98;;
50781;SDS011;36749;37.428;-121.972;2022-11-20T06:52:55;23.27;;;12.70;;
50781;SDS011;36749;37.428;-121.972;2022-11-20T06:55:22;25.23;;;12.10;;
50781;SDS011;36749;37.428;-121.972;2022-11-20T06:57:48;21.98;;;11.57;;
50781;SDS011;36749;37.428;-121.972;2022-11-20T07:00:14;20.98;;;11.63;;
50781;SDS011;36749;37.428;-121.972;2022-11-20T07:02:40;24.88;;;12.00;;
50781;SDS011;36749;37.428;-121.972;2022-11-20T07:05:06;26.42;;;14.95;;
50781;SDS011;36749;37.428;-121.972;2022-11-20T07:07:32;23.65;;;14.77;;
50781;SDS011;36749;37.428;-121.972;2022-11-20T07:09:58;21.08;;;14.10;;
50781;SDS011;36749;37.428;-121.972;2022-11-20T07:12:25;22.75;;;14.63;;
50781;SDS011;36749;37.428;-121.972;2022-11-20T07:14:51;23.40;;;12.30;;
50781;SDS011;36749;37.428;-121.972;2022-11-20T07:17:17;22.40;;;11.82;;
50781;SDS011;36749;37.428;-121.972;2022-11-20T07:19:43;24.42;;;11.77;;
50781;SDS011;36749;37.428;-121.972;2022-11-20T07:22:09;20.77;;;11.00;;
50781;SDS011;36749;37.428;-121.972;2022-11-20T07:24:35;21.00;;;10.93;;
50781;SDS011;36749;37.428;-121.972;2022-11-20T07:27:01;19.23;;;10.63;;
50781;SDS011;36749;37.428;-121.972;2022-11-20T07:29:27;24.50;;;10.93;;
50781;SDS011;36749;37.428;-121.972;2022-11-20T07:31:53;20.33;;;10.75;;
50781;SDS011;36749;37.428;-121.972;2022-11-20T07:34:21;16.48;;;9.13;;
50781;SDS011;36749;37.428;-121.972;2022-11-20T07:36:47;22.10;;;11.13;;
50781;SDS011;36749;37.428;-121.972;2022-11-20T07:39:13;19.13;;;11.10;;
50781;SDS011;36749;37.428;-121.972;2022-11-20T07:41:39;19.10;;;10.90;;
50781;SDS011;36749;37.428;-121.972;2022-11-20T07:44:06;20.75;;;10.63;;
50781;SDS011;36749;37.428;-121.972;2022-11-20T07:46:32;19.50;;;9.93;;
50781;SDS011;36749;37.428;-121.972;2022-11-20T07:48:58;21.63;;;9.77;;
50781;SDS011;36749;37.428;-121.972;2022-11-20T07:51:24;20.50;;;9.63;;
50781;SDS011;36749;37.428;-121.972;2022-11-20T07:53:51;24.23;;;13.00;;
50781;SDS011;36749;37.428;-121.972;2022-11-20T07:56:18;25.38;;;12.90;;
50781;SDS011;36749;37.428;-121.972;2022-11-20T07:58:44;24.65;;;12.65;;
50781;SDS011;36749;37.428;-121.972;2022-11-20T08:01:10;24.35;;;11.50;;
50781;SDS011;36749;37.428;-121.972;2022-11-20T08:03:36;23.85;;;12.15;;
50781;SDS011;36749;37.428;-121.972;2022-11-20T08:06:05;23.65;;;10.77;;
50781;SDS011;36749;37.428;-121.972;2022-11-20T08:08:32;20.67;;;10.38;;
50781;SDS011;36749;37.428;-121.972;2022-11-20T08:10:58;18.58;;;10.77;;
50781;SDS011;36749;37.428;-121.972;2022-11-20T08:13:44;19.20;;;10.05;;
50781;SDS011;36749;37.428;-121.972;2022-11-20T08:16:29;18.38;;;10.15;;
50781;SDS011;36749;37.428;-121.972;2022-11-20T08:18:55;21.75;;;10.52;;
50781;SDS011;36749;37.428;-121.972;2022-11-20T08:21:21;19.23;;;10.80;;
50781;SDS011;36749;37.428;-121.972;2022-11-20T08:23:47;16.92;;;9.77;;
50781;SDS011;36749;37.428;-121.972;2022-11-20T08:26:13;18.20;;;9.50;;
50781;SDS011;36749;37.428;-121.972;2022-11-20T08:28:39;19.58;;;10.13;;
50781;SDS011;36749;37.428;-121.972;2022-11-20T08:31:06;24.13;;;9.65;;
50781;SDS011;36749;37.428;-121.972;2022-11-20T08:33:32;17.10;;;9.60;;
50781;SDS011;36749;37.428;-121.972;2022-11-20T08:35:59;19.45;;;9.68;;
50781;SDS011;36749;37.428;-121.972;2022-11-20T08:38:26;21.67;;;10.43;;
50781;SDS011;36749;37.428;-121.972;2022-11-20T08:40:55;17.83;;;9.57;;
50781;SDS011;36749;37.428;-121.972;2022-11-20T08:43:42;19.88;;;10.73;;
50781;SDS011;36749;37.428;-121.972;2022-11-20T08:46:09;21.50;;;11.35;;
50781;SDS011;36749;37.428;-121.972;2022-11-20T08:48:35;22.15;;;11.52;;
50781;SDS011;36749;37.428;-121.972;2022-11-20T08:51:01;22.17;;;10.38;;
50781;SDS011;36749;37.428;-121.972;2022-11-20T08:53:27;19.88;;;10.68;;
50781;SDS011;36749;37.428;-121.972;2022-11-20T08:55:53;19.75;;;10.35;;
50781;SDS011;36749;37.428;-121.972;2022-11-20T08:58:19;20.20;;;10.00;;
50781;SDS011;36749;37.428;-121.972;2022-11-20T09:00:45;19.95;;;9.98;;
50781;SDS011;36749;37.428;-121.972;2022-11-20T09:03:11;19.17;;;10.95;;
50781;SDS011;36749;37.428;-121.972;2022-11-20T09:05:40;22.92;;;11.05;;
50781;SDS011;36749;37.428;-121.972;2022-11-20T09:08:08;20.73;;;10.35;;
50781;SDS011;36749;37.428;-121.972;2022-11-20T09:10:34;15.40;;;9.55;;
50781;SDS011;36749;37.428;-121.972;2022-11-20T09:13:00;20.13;;;10.00;;
50781;SDS011;36749;37.428;-121.972;2022-11-20T09:15:26;17.02;;;9.93;;
50781;SDS011;36749;37.428;-121.972;2022-11-20T09:17:53;20.58;;;9.57;;
50781;SDS011;36749;37.428;-121.972;2022-11-20T09:20:19;16.45;;;8.55;;
50781;SDS011;36749;37.428;-121.972;2022-11-20T09:22:46;23.90;;;9.65;;
50781;SDS011;36749;37.428;-121.972;2022-11-20T09:25:12;16.45;;;8.85;;
50781;SDS011;36749;37.428;-121.972;2022-11-20T09:27:38;18.60;;;9.43;;
50781;SDS011;36749;37.428;-121.972;2022-11-20T09:30:06;16.83;;;9.43;;
50781;SDS011;36749;37.428;-121.972;2022-11-20T09:32:33;19.85;;;10.85;;
50781;SDS011;36749;37.428;-121.972;2022-11-20T09:34:59;18.52;;;9.35;;
50781;SDS011;36749;37.428;-121.972;2022-11-20T09:37:26;17.30;;;8.73;;
50781;SDS011;36749;37.428;-121.972;2022-11-20T09:39:52;19.35;;;9.15;;
50781;SDS011;36749;37.428;-121.972;2022-11-20T09:48:26;21.25;;;9.43;;
50781;SDS011;36749;37.428;-121.972;2022-11-20T09:56:17;19.90;;;9.32;;
50781;SDS011;36749;37.428;-121.972;2022-11-20T09:58:45;18.25;;;9.50;;
50781;SDS011;36749;37.428;-121.972;2022-11-20T10:01:18;17.65;;;9.55;;
50781;SDS011;36749;37.428;-121.972;2022-11-20T10:03:54;16.33;;;9.90;;
50781;SDS011;36749;37.428;-121.972;2022-11-20T10:06:28;16.77;;;9.13;;
50781;SDS011;36749;37.428;-121.972;2022-11-20T10:08:59;16.98;;;9.10;;
50781;SDS011;36749;37.428;-121.972;2022-11-20T10:11:51;24.85;;;10.20;;
50781;SDS011;36749;37.428;-121.972;2022-11-20T10:14:37;17.75;;;9.70;;
50781;SDS011;36749;37.428;-121.972;2022-11-20T10:17:23;16.15;;;9.07;;
50781;SDS011;36749;37.428;-121.972;2022-11-20T10:23:06;17.25;;;9.45;;
50781;SDS011;36749;37.428;-121.972;2022-11-20T10:25:41;18.27;;;9.35;;
50781;SDS011;36749;37.428;-121.972;2022-11-20T10:31:32;18.17;;;9.25;;
50781;SDS011;36749;37.428;-121.972;2022-11-20T10:34:01;16.10;;;8.63;;
50781;SDS011;36749;37.428;-121.972;2022-11-20T10:36:35;18.52;;;9.20;;
50781;SDS011;36749;37.428;-121.972;2022-11-20T10:41:49;15.52;;;8.38;;
50781;SDS011;36749;37.428;-121.972;2022-11-20T10:44:19;17.77;;;9.93;;
50781;SDS011;36749;37.428;-121.972;2022-11-20T10:47:14;17.30;;;9.48;;
50781;SDS011;36749;37.428;-121.972;2022-11-20T10:49:42;17.88;;;9.02;;
50781;SDS011;36749;37.428;-121.972;2022-11-20T10:55:47;16.52;;;8.65;;
50781;SDS011;36749;37.428;-121.972;2022-11-20T11:01:17;17.30;;;9.32;;
50781;SDS011;36749;37.428;-121.972;2022-11-20T11:03:46;18.08;;;9.05;;
50781;SDS011;36749;37.428;-121.972;2022-11-20T11:08:58;18.10;;;10.02;;
50781;SDS011;36749;37.428;-121.972;2022-11-20T11:11:27;17.98;;;9.82;;
50781;SDS011;36749;37.428;-121.972;2022-11-20T11:14:07;21.30;;;10.45;;
50781;SDS011;36749;37.428;-121.972;2022-11-20T11:16:34;20.60;;;9.27;;
50781;SDS011;36749;37.428;-121.972;2022-11-20T11:19:13;17.77;;;9.90;;
50781;SDS011;36749;37.428;-121.972;2022-11-20T11:21:45;18.25;;;10.93;;
50781;SDS011;36749;37.428;-121.972;2022-11-20T11:24:19;20.15;;;10.68;;
50781;SDS011;36749;37.428;-121.972;2022-11-20T11:26:59;19.88;;;10.30;;
50781;SDS011;36749;37.428;-121.972;2022-11-20T11:29:32;17.42;;;8.30;;
50781;SDS011;36749;37.428;-121.972;2022-11-20T11:35:07;14.60;;;7.97;;
50781;SDS011;36749;37.428;-121.972;2022-11-20T11:37:45;15.60;;;8.35;;
50781;SDS011;36749;37.428;-121.972;2022-11-20T11:40:13;16.55;;;8.25;;
50781;SDS011;36749;37.428;-121.972;2022-11-20T11:42:42;17.23;;;8.13;;
50781;SDS011;36749;37.428;-121.972;2022-11-20T11:45:16;12.88;;;7.30;;
50781;SDS011;36749;37.428;-121.972;2022-11-20T11:52:36;17.33;;;8.55;;
50781;SDS011;36749;37.428;-121.972;2022-11-20T11:58:23;17.90;;;8.15;;
50781;SDS011;36749;37.428;-121.972;2022-11-20T12:01:07;14.85;;;8.68;;
50781;SDS011;36749;37.428;-121.972;2022-11-20T12:03:38;14.82;;;7.82;;
50781;SDS011;36749;37.428;-121.972;2022-11-20T12:06:12;14.52;;;8.15;;
50781;SDS011;36749;37.428;-121.972;2022-11-20T12:08:51;17.17;;;9.48;;
50781;SDS011;36749;37.428;-121.972;2022-11-20T12:14:24;19.25;;;8.65;;
50781;SDS011;36749;37.428;-121.972;2022-11-20T12:17:15;14.75;;;7.85;;
50781;SDS011;36749;37.428;-121.972;2022-11-20T12:19:43;13.35;;;8.18;;
50781;SDS011;36749;37.428;-121.972;2022-11-20T12:24:59;17.05;;;8.60;;
50781;SDS011;36749;37.428;-121.972;2022-11-20T12:30:28;15.57;;;8.10;;
50781;SDS011;36749;37.428;-121.972;2022-11-20T12:40:50;16.60;;;8.88;;
50781;SDS011;36749;37.428;-121.972;2022-11-20T12:43:24;17.42;;;10.63;;
50781;SDS011;36749;37.428;-121.972;2022-11-20T12:48:51;15.68;;;8.73;;
50781;SDS011;36749;37.428;-121.972;2022-11-20T12:54:25;15.85;;;9.23;;
50781;SDS011;36749;37.428;-121.972;2022-11-20T13:02:41;19.85;;;10.55;;
50781;SDS011;36749;37.428;-121.972;2022-11-20T13:05:41;14.82;;;8.90;;
50781;SDS011;36749;37.428;-121.972;2022-11-20T13:08:28;17.00;;;9.20;;
50781;SDS011;36749;37.428;-121.972;2022-11-20T13:19:35;18.50;;;9.82;;
50781;SDS011;36749;37.428;-121.972;2022-11-20T13:22:01;16.60;;;8.88;;
50781;SDS011;36749;37.428;-121.972;2022-11-20T13:24:29;17.95;;;9.73;;
50781;SDS011;36749;37.428;-121.972;2022-11-20T13:26:59;17.90;;;9.20;;
50781;SDS011;36749;37.428;-121.972;2022-11-20T13:29:26;19.58;;;9.95;;
50781;SDS011;36749;37.428;-121.972;2022-11-20T13:32:00;18.35;;;10.43;;
50781;SDS011;36749;37.428;-121.972;2022-11-20T13:34:28;16.77;;;9.88;;
50781;SDS011;36749;37.428;-121.972;2022-11-20T13:36:56;17.40;;;9.55;;
50781;SDS011;36749;37.428;-121.972;2022-11-20T13:39:24;19.55;;;10.25;;
50781;SDS011;36749;37.428;-121.972;2022-11-20T13:41:58;17.38;;;9.35;;
50781;SDS011;36749;37.428;-121.972;2022-11-20T13:44:33;19.13;;;10.07;;
50781;SDS011;36749;37.428;-121.972;2022-11-20T13:47:03;19.88;;;10.38;;
50781;SDS011;36749;37.428;-121.972;2022-11-20T13:49:33;18.73;;;10.40;;
50781;SDS011;36749;37.428;-121.972;2022-11-20T14:00:33;15.00;;;9.80;;
50781;SDS011;36749;37.428;-121.972;2022-11-20T14:03:12;17.23;;;10.18;;
50781;SDS011;36749;37.428;-121.972;2022-11-20T14:05:54;17.17;;;10.13;;
50781;SDS011;36749;37.428;-121.972;2022-11-20T14:08:49;18.17;;;9.80;;
50781;SDS011;36749;37.428;-121.972;2022-11-20T14:11:20;17.85;;;9.38;;
50781;SDS011;36749;37.428;-121.972;2022-11-20T14:16:22;17.77;;;9.70;;
50781;SDS011;36749;37.428;-121.972;2022-11-20T14:18:49;19.70;;;10.40;;
50781;SDS011;36749;37.428;-121.972;2022-11-20T14:21:25;18.77;;;10.77;;
50781;SDS011;36749;37.428;-121.972;2022-11-20T14:23:53;16.63;;;9.30;;
50781;SDS011;36749;37.428;-121.972;2022-11-20T14:26:28;23.27;;;10.80;;
50781;SDS011;36749;37.428;-121.972;2022-11-20T14:28:54;19.13;;;10.10;;
50781;SDS011;36749;37.428;-121.972;2022-11-20T14:31:23;22.02;;;10.32;;
50781;SDS011;36749;37.428;-121.972;2022-11-20T14:33:51;17.17;;;10.43;;
50781;SDS011;36749;37.428;-121.972;2022-11-20T14:36:19;16.65;;;9.48;;
50781;SDS011;36749;37.428;-121.972;2022-11-20T14:38:47;16.55;;;9.32;;
50781;SDS011;36749;37.428;-121.972;2022-11-20T14:41:18;18.48;;;9.88;;
50781;SDS011;36749;37.428;-121.972;2022-11-20T14:43:47;18.92;;;10.43;;
50781;SDS011;36749;37.428;-121.972;2022-11-20T14:46:19;20.75;;;10.00;;
50781;SDS011;36749;37.428;-121.972;2022-11-20T14:48:46;17.20;;;9.95;;
50781;SDS011;36749;37.428;-121.972;2022-11-20T14:51:36;16.23;;;10.02;;
50781;SDS011;36749;37.428;-121.972;2022-11-20T14:56:53;21.38;;;11.07;;
50781;SDS011;36749;37.428;-121.972;2022-11-20T14:59:28;20.23;;;10.80;;
50781;SDS011;36749;37.428;-121.972;2022-11-20T15:02:04;17.25;;;9.95;;
50781;SDS011;36749;37.428;-121.972;2022-11-20T15:04:31;20.60;;;9.98;;
50781;SDS011;36749;37.428;-121.972;2022-11-20T15:06:58;19.13;;;10.18;;
50781;SDS011;36749;37.428;-121.972;2022-11-20T15:09:25;18.40;;;10.50;;
50781;SDS011;36749;37.428;-121.972;2022-11-20T15:11:53;18.05;;;10.55;;
50781;SDS011;36749;37.428;-121.972;2022-11-20T15:14:24;20.75;;;10.02;;
50781;SDS011;36749;37.428;-121.972;2022-11-20T15:16:51;19.40;;;10.27;;
50781;SDS011;36749;37.428;-121.972;2022-11-20T15:19:22;21.13;;;11.55;;
50781;SDS011;36749;37.428;-121.972;2022-11-20T15:21:49;18.02;;;9.57;;
50781;SDS011;36749;37.428;-121.972;2022-11-20T15:24:16;17.20;;;9.18;;
50781;SDS011;36749;37.428;-121.972;2022-11-20T15:26:42;23.20;;;10.43;;
50781;SDS011;36749;37.428;-121.972;2022-11-20T15:29:13;18.65;;;9.38;;
50781;SDS011;36749;37.428;-121.972;2022-11-20T15:34:11;18.00;;;9.50;;
50781;SDS011;36749;37.428;-121.972;2022-11-20T15:36:41;20.75;;;10.38;;
50781;SDS011;36749;37.428;-121.972;2022-11-20T15:39:08;18.63;;;10.25;;
50781;SDS011;36749;37.428;-121.972;2022-11-20T15:41:35;19.95;;;10.35;;
50781;SDS011;36749;37.428;-121.972;2022-11-20T15:44:05;18.52;;;10.10;;
50781;SDS011;36749;37.428;-121.972;2022-11-20T15:46:32;17.98;;;9.98;;
50781;SDS011;36749;37.428;-121.972;2022-11-20T15:49:03;17.92;;;10.43;;
50781;SDS011;36749;37.428;-121.972;2022-11-20T15:51:34;20.75;;;10.35;;
50781;SDS011;36749;37.428;-121.972;2022-11-20T15:54:08;21.83;;;9.60;;
50781;SDS011;36749;37.428;-121.972;2022-11-20T15:56:45;16.58;;;9.77;;